Time;durP1;ratioP1;P1;durP2;ratioP2;P2;SDS_P1;SDS_P2;PMS_P1;PMS_P2;Temp;Humidity;BMP_temperature;BMP_pressure;BME280_temperature;BME280_humidity;BME280_pressure;Samples;Min_cycle;Max_cycle;Signal;HPM_P1;HPM_P2
2019/04/09 06:27:02;;;;;;;58;46.2;;;;;;;12.79;74.34473;954.7367;;;;
2019/04/09 06:31:24;;;;;;;58.4;46.3;;;;;;;12.8;74.14648;954.6676;;;;
2019/04/09 06:34:14;;;;;;;60;47.5;;;;;;;12.69;74.20996;954.7086;;;;
2019/04/09 06:36:24;;;;;;;62.7;48.7;;;;;;;12.59;74.99316;954.6703;;;;
2019/04/09 06:42:11;;;;;;;46.5;35.3;;;;;;;12.3;76.93262;954.704;;;;
2019/04/09 06:47:22;;;;;;;64.8;50.5;;;;;;;12.36;76.07031;954.6495;;;;
2019/04/09 06:52:04;;;;;;;70.8;53.3;;;;;;;12.12;76.80664;954.7626;;;;
2019/04/09 06:56:51;;;;;;;78.8;56.7;;;;;;;11.94;78.16895;954.7346;;;;
2019/04/09 07:01:52;;;;;;;72.4;54.9;;;;;;;11.86;78.66504;954.6638;;;;
2019/04/09 07:04:20;;;;;;;79;55.7;;;;;;;11.75;79.42285;954.6609;;;;
2019/04/09 07:07:30;;;;;;;76.8;55.7;;;;;;;11.73;79.12793;954.6252;;;;
2019/04/09 07:09:19;;;;;;;79.9;58.1;;;;;;;11.66;79.52148;954.6339;;;;
2019/04/09 07:14:18;;;;;;;76.5;56.5;;;;;;;11.7;79.51758;954.5264;;;;
2019/04/09 07:18:56;;;;;;;70.4;54.2;;;;;;;11.89;79.77246;954.553;;;;
2019/04/09 07:21:21;;;;;;;64.6;51.1;;;;;;;12.01;79.3291;954.5932;;;;
2019/04/09 07:28:49;;;;;;;70.1;56.8;;;;;;;12.29;76.4541;954.5906;;;;
2019/04/09 07:34:09;;;;;;;72.6;58.2;;;;;;;12.33;76.10059;954.6142;;;;
2019/04/09 07:36:04;;;;;;;71.7;57.1;;;;;;;12.34;76.5918;954.6133;;;;
2019/04/09 07:38:21;;;;;;;70.1;57.1;;;;;;;12.31;75.87695;954.6517;;;;
2019/04/09 07:40:48;;;;;;;70.7;56.4;;;;;;;12.27;76.35645;954.563;;;;
2019/04/09 07:48:31;;;;;;;66.2;54.3;;;;;;;12.5;75.88574;954.5443;;;;
2019/04/09 07:50:51;;;;;;;66.2;53.5;;;;;;;12.61;76.02246;954.5211;;;;
2019/04/09 07:55:25;;;;;;;65.4;52.6;;;;;;;12.67;74.27637;954.4321;;;;
2019/04/09 08:00:22;;;;;;;60.3;50.5;;;;;;;12.86;74.49414;954.5822;;;;
2019/04/09 08:02:51;;;;;;;63;51.6;;;;;;;12.97;74.91113;954.5281;;;;
2019/04/09 08:11:39;;;;;;;61.6;51.7;;;;;;;13.38;73.38574;954.4942;;;;
2019/04/09 08:14:28;;;;;;;67.1;54.7;;;;;;;13.43;73.31152;954.4698;;;;
2019/04/09 08:16:18;;;;;;;67;54.2;;;;;;;13.48;73.50684;954.5101;;;;
2019/04/09 08:21:39;;;;;;;71.4;57.7;;;;;;;13.45;74.46875;954.5014;;;;
2019/04/09 08:23:44;;;;;;;68.6;57;;;;;;;13.45;71.90527;954.4253;;;;
2019/04/09 08:25:57;;;;;;;73.1;59.4;;;;;;;13.57;73.50977;954.4549;;;;
2019/04/09 08:31:11;;;;;;;72.2;59;;;;;;;13.67;71.05664;954.4669;;;;
2019/04/09 08:33:53;;;;;;;72.4;58;;;;;;;13.73;71.75586;954.488;;;;
2019/04/09 08:36:00;;;;;;;79.1;61.4;;;;;;;13.58;71.86914;954.4796;;;;
2019/04/09 08:48:17;;;;;;;79;63.6;;;;;;;13.89;70.19629;954.5172;;;;
2019/04/09 08:52:31;;;;;;;86.1;67.9;;;;;;;13.78;71.33203;954.4985;;;;
2019/04/09 08:57:13;;;;;;;85.8;68.2;;;;;;;13.66;72.58105;954.4433;;;;
2019/04/09 08:59:38;;;;;;;84.4;66.9;;;;;;;13.65;71.2168;954.4443;;;;
2019/04/09 09:02:05;;;;;;;91.4;72.6;;;;;;;13.56;72.06445;954.4185;;;;
2019/04/09 09:04:33;;;;;;;92;73;;;;;;;13.47;73.19043;954.3876;;;;
2019/04/09 09:07:01;;;;;;;102.8;78.4;;;;;;;13.36;74.71973;954.3688;;;;
2019/04/09 09:09:32;;;;;;;97.8;74.7;;;;;;;13.29;73.11426;954.3226;;;;
2019/04/09 09:11:55;;;;;;;90.2;70.9;;;;;;;13.52;72.18457;954.3297;;;;
2019/04/09 09:14:13;;;;;;;96.8;75.7;;;;;;;13.46;73.22363;954.3758;;;;
2019/04/09 09:16:45;;;;;;;97.2;75.4;;;;;;;13.46;72.54688;954.3807;;;;
2019/04/09 09:21:30;;;;;;;97.7;75.3;;;;;;;13.4;71.35059;954.3583;;;;
2019/04/09 09:24:07;;;;;;;97.6;75.5;;;;;;;13.47;72.93457;954.3747;;;;
2019/04/09 09:28:59;;;;;;;96.5;74.3;;;;;;;13.53;72.31445;954.3325;;;;
2019/04/09 09:31:25;;;;;;;92.8;72.7;;;;;;;13.6;71.2793;954.3183;;;;
2019/04/09 09:38:30;;;;;;;94;75.6;;;;;;;13.9;71.19922;954.3925;;;;
2019/04/09 09:41:03;;;;;;;88.9;70.6;;;;;;;13.96;69.99609;954.3363;;;;
2019/04/09 09:44:00;;;;;;;93.5;73.4;;;;;;;14.1;71.14941;954.3865;;;;
2019/04/09 09:45:47;;;;;;;89.7;70.2;;;;;;;14.12;70.2793;954.3397;;;;
2019/04/09 09:48:13;;;;;;;83.9;67.7;;;;;;;14.14;69.08008;954.3158;;;;
2019/04/09 09:53:09;;;;;;;83.5;65.8;;;;;;;14.2;68.77539;954.2724;;;;
2019/04/09 09:55:40;;;;;;;90;69.7;;;;;;;14.05;70.01074;954.2723;;;;
2019/04/09 09:57:56;;;;;;;88.5;68.8;;;;;;;14.11;70.04395;954.2428;;;;
2019/04/09 10:00:24;;;;;;;87.2;66.8;;;;;;;14.09;68.88672;954.2617;;;;
2019/04/09 10:02:40;;;;;;;81.2;65.3;;;;;;;14.28;68.09766;954.2361;;;;
2019/04/09 10:05:45;;;;;;;80.6;64.7;;;;;;;14.26;68.69043;954.2432;;;;
2019/04/09 10:10:14;;;;;;;75.7;61.2;;;;;;;14.37;67.27246;954.2012;;;;
2019/04/09 10:12:27;;;;;;;76;61.4;;;;;;;14.46;66.55078;954.2053;;;;
2019/04/09 10:14:51;;;;;;;77.3;62.3;;;;;;;14.58;66.3584;954.2405;;;;
2019/04/09 10:17:17;;;;;;;81.6;66.8;;;;;;;14.62;67.65039;954.2302;;;;
2019/04/09 10:24:32;;;;;;;83;66.4;;;;;;;14.47;67.97656;954.1063;;;;
2019/04/09 10:27:25;;;;;;;81.8;66.1;;;;;;;14.58;67.60938;954.1672;;;;
2019/04/09 10:29:30;;;;;;;81.6;65.1;;;;;;;14.29;67.54102;954.127;;;;
2019/04/09 10:32:14;;;;;;;85.2;67.3;;;;;;;14.21;68.82227;954.0872;;;;
2019/04/09 10:36:32;;;;;;;75.4;61.4;;;;;;;14.47;68.61914;954.0804;;;;
2019/04/09 10:41:28;;;;;;;77.6;63.8;;;;;;;14.78;66.08594;954.0139;;;;
2019/04/09 10:43:48;;;;;;;77.8;63.2;;;;;;;14.91;65.14844;954.0041;;;;
2019/04/09 10:49:12;;;;;;;79.4;64.2;;;;;;;14.96;66.8623;954.0095;;;;
2019/04/09 10:51:18;;;;;;;79.2;64.8;;;;;;;15.03;66.31055;954.0212;;;;
2019/04/09 10:53:28;;;;;;;79;63.5;;;;;;;15.1;65.66699;954.0452;;;;
2019/04/09 10:56:10;;;;;;;74.7;63.1;;;;;;;15.15;64.84375;954.0293;;;;
2019/04/09 10:58:32;;;;;;;76.1;63;;;;;;;15.21;64.24512;954.0076;;;;
2019/04/09 11:03:29;;;;;;;77.7;65.5;;;;;;;15.25;65.62988;954.0109;;;;
2019/04/09 11:05:36;;;;;;;77.3;64.9;;;;;;;15.18;65.0127;953.9813;;;;
2019/04/09 11:08:45;;;;;;;81.4;66.9;;;;;;;15.04;65.24902;953.9725;;;;
2019/04/09 11:20:06;;;;;;;81.7;66.2;;;;;;;14.84;68.28027;953.9021;;;;
2019/04/09 11:22:11;;;;;;;80.7;64.4;;;;;;;14.81;66.42871;953.9709;;;;
2019/04/09 11:32:04;;;;;;;77.5;62.7;;;;;;;14.66;66.31348;953.9579;;;;
2019/04/09 11:34:18;;;;;;;78.2;63.9;;;;;;;14.82;66.43066;953.9956;;;;
2019/04/09 11:42:00;;;;;;;82.1;64.4;;;;;;;15.02;65.62988;953.9023;;;;
2019/04/09 11:44:06;;;;;;;81.9;65.1;;;;;;;15.03;66.58008;953.931;;;;
2019/04/09 11:46:26;;;;;;;74.4;60.6;;;;;;;15.08;64.00391;953.9235;;;;
2019/04/09 11:56:15;;;;;;;72.5;60;;;;;;;15.54;62.62109;953.9289;;;;
2019/04/09 11:58:33;;;;;;;109.3;88.8;;;;;;;15.64;62.18945;953.9712;;;;
2019/04/09 12:02:22;;;;;;;74.2;59.8;;;;;;;15.68;61.37598;953.9169;;;;
2019/04/09 12:03:29;;;;;;;66.2;56.4;;;;;;;15.77;60.10059;953.9122;;;;
2019/04/09 12:06:00;;;;;;;69.4;57.6;;;;;;;15.79;59.78711;953.923;;;;
2019/04/09 12:09:35;;;;;;;68.7;56.5;;;;;;;15.81;59.88379;953.8973;;;;
2019/04/09 12:10:33;;;;;;;69.9;57;;;;;;;15.9;59.52148;953.8414;;;;
2019/04/09 12:16:36;;;;;;;64.8;55.9;;;;;;;16.1;59.03223;953.8286;;;;
2019/04/09 12:18:59;;;;;;;67.4;55.3;;;;;;;16.12;58.50781;953.7877;;;;
2019/04/09 12:22:04;;;;;;;64.1;54;;;;;;;16.19;58.2959;953.7503;;;;
2019/04/09 12:23:52;;;;;;;63.5;53.9;;;;;;;16.3;58.03906;953.7303;;;;
2019/04/09 12:29:49;;;;;;;63.1;54.7;;;;;;;16.46;56.93457;953.6456;;;;
2019/04/09 12:32:15;;;;;;;64.4;55.3;;;;;;;16.62;58.03516;953.6688;;;;
2019/04/09 12:34:48;;;;;;;63.8;54.3;;;;;;;16.69;56.57715;953.6331;;;;
2019/04/09 12:37:04;;;;;;;64.6;53.2;;;;;;;16.81;55.47852;953.6144;;;;
2019/04/09 12:39:28;;;;;;;61.9;51.7;;;;;;;17.05;55.83691;953.5563;;;;
2019/04/09 12:46:27;;;;;;;57;50.6;;;;;;;18.02;54.47852;953.4598;;;;
2019/04/09 13:00:29;;;;;;;57.4;50.7;;;;;;;19.62;49.53809;953.3145;;;;
2019/04/09 13:03:24;;;;;;;50.5;45;;;;;;;19.8;47.01855;953.3274;;;;
2019/04/09 13:06:15;;;;;;;51.7;46.1;;;;;;;19.92;46.4502;953.3123;;;;
2019/04/09 13:17:04;;;;;;;41.8;37.2;;;;;;;20.98;43.18652;953.1588;;;;
2019/04/09 13:19:23;;;;;;;35.6;31.5;;;;;;;21.39;43.26172;953.1064;;;;
2019/04/09 13:24:13;;;;;;;35.9;32;;;;;;;21.81;42.28125;953.0856;;;;
2019/04/09 13:26:33;;;;;;;46.3;41.4;;;;;;;21.81;40.72656;953.0765;;;;
2019/04/09 13:29:07;;;;;;;46.8;41.8;;;;;;;21.51;41.54102;953.0111;;;;
2019/04/09 13:31:29;;;;;;;49.8;43.8;;;;;;;21.33;42.16406;952.97;;;;
2019/04/09 13:33:53;;;;;;;47.6;42.4;;;;;;;21.5;41.75391;952.9356;;;;
2019/04/09 13:36:25;;;;;;;47.5;42.3;;;;;;;21.69;40.32422;952.9717;;;;
2019/04/09 13:42:29;;;;;;;111.9;99.9;;;;;;;21.67;39.08789;952.8845;;;;
2019/04/09 13:45:24;;;;;;;47.8;42.7;;;;;;;21.39;40.21289;952.8421;;;;
2019/04/09 13:47:07;;;;;;;46.1;41.1;;;;;;;21.35;40.31641;952.8173;;;;
2019/04/09 13:49:42;;;;;;;48.4;43.1;;;;;;;21.44;43.05371;952.889;;;;
2019/04/09 13:52:12;;;;;;;48.8;43.6;;;;;;;21.4;42.2666;952.8956;;;;
2019/04/09 13:54:17;;;;;;;47.7;42.5;;;;;;;20.86;41.43359;952.8153;;;;
2019/04/09 13:56:42;;;;;;;48.1;42.3;;;;;;;20.87;41.65918;952.818;;;;
2019/04/09 13:59:07;;;;;;;50.5;43;;;;;;;20.81;42.00781;952.7424;;;;
2019/04/09 14:01:33;;;;;;;47.6;42.4;;;;;;;20.92;43.44043;952.7358;;;;
2019/04/09 14:05:49;;;;;;;45.8;40.8;;;;;;;20.93;43.13477;952.7333;;;;
2019/04/09 14:06:23;;;;;;;48.3;43;;;;;;;21.12;41.29199;952.7264;;;;
2019/04/09 14:08:48;;;;;;;46.2;41.2;;;;;;;21.44;42.31738;952.7679;;;;
2019/04/09 14:11:13;;;;;;;49.3;42.8;;;;;;;21.37;39.92676;952.7145;;;;
2019/04/09 14:13:39;;;;;;;48.9;43.7;;;;;;;21.05;42.28027;952.7605;;;;
2019/04/09 14:16:04;;;;;;;49.9;43.7;;;;;;;20.63;42.09766;952.6995;;;;
2019/04/09 14:18:29;;;;;;;49.9;44.5;;;;;;;20.06;42.24512;952.7205;;;;
2019/04/09 14:20:54;;;;;;;41.1;36.4;;;;;;;19.8;44.13477;952.678;;;;
2019/04/09 14:23:19;;;;;;;42.1;37.3;;;;;;;19.78;45.20801;952.6857;;;;
2019/04/09 14:25:44;;;;;;;49.7;44.2;;;;;;;19.76;42.95996;952.6595;;;;
2019/04/09 14:28:10;;;;;;;49.9;43.4;;;;;;;19.83;44.76367;952.6509;;;;
2019/04/09 14:30:36;;;;;;;49.4;44;;;;;;;19.95;44.43262;952.6617;;;;
2019/04/09 14:33:01;;;;;;;49.1;43.2;;;;;;;20.07;44.94238;952.5854;;;;
2019/04/09 14:35:27;;;;;;;51.3;43.9;;;;;;;20.1;44.82617;952.5762;;;;
2019/04/09 14:37:52;;;;;;;51;44.3;;;;;;;19.84;43.52441;952.5328;;;;
2019/04/09 14:40:19;;;;;;;50.7;45.2;;;;;;;19.81;46.16797;952.4729;;;;
2019/04/09 14:42:43;;;;;;;55.1;47.6;;;;;;;19.69;46.81836;952.488;;;;
2019/04/09 14:45:09;;;;;;;54.2;45.7;;;;;;;19.61;46.57227;952.5021;;;;
2019/04/09 14:47:34;;;;;;;52.3;45.9;;;;;;;19.36;46.95801;952.4357;;;;
2019/04/09 14:50:00;;;;;;;53;47.2;;;;;;;19.31;46.82324;952.4263;;;;
2019/04/09 14:52:25;;;;;;;53.8;47.2;;;;;;;19.3;46.0791;952.3925;;;;
2019/04/09 14:54:50;;;;;;;53.9;47.7;;;;;;;19.51;45.91211;952.3716;;;;
2019/04/09 14:57:16;;;;;;;51.4;45.7;;;;;;;19.75;45.32324;952.4141;;;;
2019/04/09 14:59:48;;;;;;;51.3;45.6;;;;;;;19.87;44.38965;952.4197;;;;
2019/04/09 15:02:10;;;;;;;93.4;79.2;;;;;;;19.71;44.03027;952.4297;;;;
2019/04/09 15:04:35;;;;;;;52;45.5;;;;;;;19.68;44.38184;952.4217;;;;
2019/04/09 15:07:00;;;;;;;52.1;45.2;;;;;;;19.82;44.31445;952.4405;;;;
2019/04/09 15:09:26;;;;;;;51.7;45.4;;;;;;;19.85;45.20313;952.4274;;;;
2019/04/09 15:11:51;;;;;;;49.7;44.3;;;;;;;19.83;43.77051;952.3535;;;;
2019/04/09 15:14:16;;;;;;;51.1;45.3;;;;;;;19.75;43.9043;952.4231;;;;
2019/04/09 15:16:41;;;;;;;51.4;45.8;;;;;;;19.68;44.41797;952.4334;;;;
2019/04/09 15:19:06;;;;;;;50.5;45;;;;;;;19.66;45.23145;952.4632;;;;
2019/04/09 15:23:57;;;;;;;53.2;45.8;;;;;;;19.14;46.13281;952.3814;;;;
2019/04/09 15:26:22;;;;;;;51.4;45;;;;;;;19.14;46.69922;952.3555;;;;
2019/04/09 15:28:47;;;;;;;51.7;44.4;;;;;;;19.21;45.57422;952.3519;;;;
2019/04/09 15:31:12;;;;;;;49.3;43.6;;;;;;;18.96;46.92773;952.3102;;;;
2019/04/09 15:33:38;;;;;;;50.8;44.8;;;;;;;19.01;48.04297;952.3067;;;;
2019/04/09 15:36:04;;;;;;;50.8;44.5;;;;;;;18.67;47.52148;952.2888;;;;
2019/04/09 15:38:30;;;;;;;80;64.7;;;;;;;18.65;46.69336;952.2587;;;;
2019/04/09 15:40:55;;;;;;;54.1;46.3;;;;;;;18.69;48.03125;952.277;;;;
2019/04/09 15:43:20;;;;;;;49.9;44.3;;;;;;;18.73;46.2793;952.2139;;;;
2019/04/09 15:45:45;;;;;;;50.3;43.5;;;;;;;18.73;46.53809;952.236;;;;
2019/04/09 15:48:14;;;;;;;53.4;46.6;;;;;;;18.68;47.28809;952.2916;;;;
2019/04/09 15:50:39;;;;;;;52.7;45.8;;;;;;;18.61;46.86719;952.3167;;;;
2019/04/09 15:53:04;;;;;;;53.6;46;;;;;;;18.74;47.55273;952.2438;;;;
2019/04/09 15:55:29;;;;;;;51.1;44.8;;;;;;;18.78;47.5459;952.2014;;;;
2019/04/09 15:57:54;;;;;;;50.4;44;;;;;;;18.79;48.40723;952.2442;;;;
2019/04/09 16:00:19;;;;;;;52.8;44.6;;;;;;;18.81;48.12695;952.2352;;;;
2019/04/09 16:02:50;;;;;;;50.7;44.7;;;;;;;18.75;48.53223;952.2932;;;;
2019/04/09 16:05:18;;;;;;;53.4;45.5;;;;;;;18.75;49.00391;952.2634;;;;
2019/04/09 16:07:46;;;;;;;54.5;45.9;;;;;;;18.56;47.75781;952.1853;;;;
2019/04/09 16:10:13;;;;;;;50.4;44.9;;;;;;;18.56;48.16992;952.2112;;;;
2019/04/09 16:12:45;;;;;;;51.8;45.1;;;;;;;18.49;49.76465;952.2572;;;;
2019/04/09 16:15:12;;;;;;;54.5;46;;;;;;;18.36;49.96191;952.2742;;;;
2019/04/09 16:17:44;;;;;;;54.8;45.7;;;;;;;18.32;50.56934;952.2986;;;;
2019/04/09 16:20:17;;;;;;;55.7;46.7;;;;;;;18.17;50.84668;952.2971;;;;
2019/04/09 16:22:43;;;;;;;53.5;46.8;;;;;;;18.03;51.53711;952.2751;;;;
2019/04/09 16:25:15;;;;;;;57.5;47.6;;;;;;;17.92;52.24219;952.3491;;;;
2019/04/09 16:27:49;;;;;;;59.4;49.2;;;;;;;17.61;53.82715;952.4036;;;;
2019/04/09 16:30:27;;;;;;;57.5;48.9;;;;;;;17.21;54.84766;952.4399;;;;
2019/04/09 16:33:07;;;;;;;58;49.7;;;;;;;16.97;56.07422;952.4559;;;;
2019/04/09 16:35:34;;;;;;;57.6;47.8;;;;;;;16.55;56.33594;952.5128;;;;
2019/04/09 16:38:10;;;;;;;56.4;48.7;;;;;;;16.42;57.99707;952.4331;;;;
2019/04/09 16:40:42;;;;;;;58.8;48.1;;;;;;;16.16;58.4668;952.4636;;;;
2019/04/09 16:43:09;;;;;;;49.1;42;;;;;;;16.04;57.67773;952.4215;;;;
2019/04/09 16:45:35;;;;;;;45;39.4;;;;;;;15.92;57.54492;952.4309;;;;
2019/04/09 16:48:09;;;;;;;47.1;40.3;;;;;;;15.93;57.9209;952.3395;;;;
2019/04/09 16:50:39;;;;;;;47.3;40.9;;;;;;;15.99;58.00977;952.4091;;;;
2019/04/09 16:53:08;;;;;;;46.1;39.9;;;;;;;16.01;57.28809;952.3747;;;;
2019/04/09 16:55:43;;;;;;;45.1;39.9;;;;;;;16.06;57.17578;952.3636;;;;
2019/04/09 16:58:13;;;;;;;44.7;38.6;;;;;;;16.04;56.22363;952.3621;;;;
2019/04/09 17:00:39;;;;;;;45.9;38.6;;;;;;;15.93;57.37012;952.3833;;;;
2019/04/09 17:03:07;;;;;;;42.5;37;;;;;;;15.88;56.2627;952.4459;;;;
2019/04/09 17:05:41;;;;;;;40.6;35.5;;;;;;;15.9;56.88574;952.4475;;;;
2019/04/09 17:08:21;;;;;;;40.4;35.3;;;;;;;15.96;56.00293;952.4264;;;;
2019/04/09 17:10:50;;;;;;;39.1;34.8;;;;;;;16.05;56.48438;952.4631;;;;
2019/04/09 17:13:24;;;;;;;40.2;34.8;;;;;;;16.05;56.51855;952.4383;;;;
2019/04/09 17:15:58;;;;;;;43.4;35.9;;;;;;;16.04;56.7627;952.5041;;;;
2019/04/09 17:18:24;;;;;;;40.7;34.4;;;;;;;16.02;57.04199;952.4769;;;;
2019/04/09 17:20:52;;;;;;;39.8;34.6;;;;;;;15.94;55.47363;952.4674;;;;
2019/04/09 17:23:19;;;;;;;42;34.8;;;;;;;15.89;57.28223;952.4666;;;;
2019/04/09 17:25:55;;;;;;;43.2;35.6;;;;;;;15.86;56.91602;952.5436;;;;
2019/04/09 17:28:33;;;;;;;40.9;35.2;;;;;;;15.88;57.32813;952.5631;;;;
2019/04/09 17:30:58;;;;;;;42.3;35.3;;;;;;;15.9;57.68164;952.5598;;;;
2019/04/09 17:33:24;;;;;;;45.3;39.1;;;;;;;15.73;58.36328;952.5461;;;;
2019/04/09 17:35:49;;;;;;;44.3;38.3;;;;;;;15.77;58.0752;952.5831;;;;
2019/04/09 17:38:14;;;;;;;44.7;38.7;;;;;;;15.78;58.87305;952.5989;;;;
2019/04/09 17:40:39;;;;;;;43.3;37.4;;;;;;;15.79;58.26465;952.6286;;;;
2019/04/09 17:43:04;;;;;;;43.4;35.9;;;;;;;15.82;59.33398;952.6536;;;;
2019/04/09 17:45:29;;;;;;;44.3;37.4;;;;;;;15.81;58.72363;952.673;;;;
2019/04/09 17:47:54;;;;;;;45.5;39.2;;;;;;;15.83;58.95996;952.704;;;;
2019/04/09 17:50:19;;;;;;;50.8;40.9;;;;;;;15.65;60.44727;952.7305;;;;
2019/04/09 17:52:44;;;;;;;47.3;39;;;;;;;15.61;60.05469;952.7192;;;;
2019/04/09 17:55:09;;;;;;;45.2;37.9;;;;;;;15.53;60.37207;952.7394;;;;
2019/04/09 17:57:34;;;;;;;48;37.9;;;;;;;15.47;60.77246;952.7612;;;;
2019/04/09 18:00:00;;;;;;;47.1;39;;;;;;;15.23;61.7334;952.7924;;;;
2019/04/09 18:02:25;;;;;;;47.1;38.4;;;;;;;15;62.08789;952.822;;;;
2019/04/09 18:04:50;;;;;;;46.1;38.2;;;;;;;14.74;62.7168;952.8086;;;;
2019/04/09 18:07:25;;;;;;;47.6;40.3;;;;;;;14.58;63.75488;952.807;;;;
2019/04/09 18:09:50;;;;;;;49;40;;;;;;;14.59;64.23633;952.7881;;;;
2019/04/09 18:12:15;;;;;;;56.6;46.4;;;;;;;14.4;65.9248;952.8622;;;;
2019/04/09 18:14:41;;;;;;;55.6;47.1;;;;;;;14.21;67.15527;952.7566;;;;
2019/04/09 18:17:07;;;;;;;59.1;48.7;;;;;;;14.07;68.24121;952.7686;;;;
2019/04/09 18:19:31;;;;;;;56.1;45.2;;;;;;;13.93;68.87305;952.7366;;;;
2019/04/09 18:21:56;;;;;;;52.9;43.6;;;;;;;13.92;68.24219;952.7723;;;;
2019/04/09 18:24:21;;;;;;;50.4;42.5;;;;;;;13.88;68.31641;952.757;;;;
2019/04/09 18:26:46;;;;;;;52;43;;;;;;;13.83;68.59961;952.8408;;;;
2019/04/09 18:29:11;;;;;;;48.5;40.6;;;;;;;13.92;68.28711;952.8287;;;;
2019/04/09 18:31:36;;;;;;;47.8;40.7;;;;;;;13.94;67.94043;952.8217;;;;
2019/04/09 18:34:14;;;;;;;48.9;39.9;;;;;;;13.95;67.65137;952.7166;;;;
2019/04/09 18:36:36;;;;;;;46.6;39.6;;;;;;;14.04;67.4668;952.7806;;;;
2019/04/09 18:39:02;;;;;;;47.7;39.5;;;;;;;14.05;67.06055;952.8272;;;;
2019/04/09 18:44:24;;;;;;;46.5;39.7;;;;;;;14.06;66.25781;952.834;;;;
2019/04/09 18:46:49;;;;;;;47.1;39.9;;;;;;;14.09;66.0752;952.8036;;;;
2019/04/09 18:49:15;;;;;;;52.6;37.7;;;;;;;14.16;66.94922;952.8622;;;;
2019/04/09 18:51:40;;;;;;;45.7;38.8;;;;;;;14.2;65.63574;952.8745;;;;
2019/04/09 18:54:05;;;;;;;46.2;39.1;;;;;;;14.19;65.68164;952.8409;;;;
2019/04/09 18:56:30;;;;;;;44.9;39.2;;;;;;;14.27;65.46094;952.8727;;;;
2019/04/09 18:58:55;;;;;;;43.4;38.5;;;;;;;14.36;65.26367;952.8723;;;;
2019/04/09 19:01:20;;;;;;;46.7;39.9;;;;;;;14.33;65.34082;952.8806;;;;
2019/04/09 19:03:46;;;;;;;46.5;39.8;;;;;;;14.34;65.22559;952.8499;;;;
2019/04/09 19:06:11;;;;;;;48.1;40.9;;;;;;;14.35;65.36621;952.8616;;;;
2019/04/09 19:08:37;;;;;;;48.5;40.5;;;;;;;14.28;65.41504;952.8152;;;;
2019/04/09 19:11:02;;;;;;;49.7;42.8;;;;;;;14.24;65.50391;952.8463;;;;
2019/04/09 19:13:28;;;;;;;52.3;44;;;;;;;14.26;66.11328;952.8223;;;;
2019/04/09 19:15:52;;;;;;;63.7;53.1;;;;;;;14.2;66.24219;952.8488;;;;
2019/04/09 19:18:17;;;;;;;47.1;41.9;;;;;;;14.12;66.25488;952.8123;;;;
2019/04/09 19:20:42;;;;;;;49;41.8;;;;;;;14.1;66.37988;952.7679;;;;
2019/04/09 19:23:08;;;;;;;49.2;43.6;;;;;;;14.09;66.44922;952.8513;;;;
2019/04/09 19:25:33;;;;;;;51.3;43.1;;;;;;;14.06;66.70117;952.8508;;;;
2019/04/09 19:27:58;;;;;;;53.7;44.8;;;;;;;14.05;67.04883;952.8569;;;;
2019/04/09 19:30:23;;;;;;;63;50.1;;;;;;;14.05;67.62012;952.8826;;;;
2019/04/09 19:32:48;;;;;;;60.5;49;;;;;;;14.07;68.05469;952.9012;;;;
2019/04/09 19:35:13;;;;;;;69.7;54.6;;;;;;;13.96;69.4834;952.925;;;;
2019/04/09 19:37:38;;;;;;;69.1;55.6;;;;;;;13.93;69.63086;952.9464;;;;
2019/04/09 19:41:54;;;;;;;70.5;55.4;;;;;;;13.86;69.96875;952.9006;;;;
2019/04/09 19:42:29;;;;;;;73.1;57;;;;;;;13.71;70.49121;952.9402;;;;
2019/04/09 19:44:55;;;;;;;67.8;54.2;;;;;;;13.73;70.4834;952.8724;;;;
2019/04/09 19:47:20;;;;;;;66.3;53.4;;;;;;;13.74;70.32324;952.9217;;;;
2019/04/09 19:49:45;;;;;;;65.5;53;;;;;;;13.74;70.24219;952.905;;;;
2019/04/09 19:52:11;;;;;;;64.5;52.3;;;;;;;13.68;70.2666;952.9266;;;;
2019/04/09 19:54:36;;;;;;;57.7;48.4;;;;;;;13.68;69.95117;952.9059;;;;
2019/04/09 19:57:01;;;;;;;51.8;44;;;;;;;13.7;69.15137;952.8552;;;;
2019/04/09 19:59:26;;;;;;;50.8;44;;;;;;;13.73;68.84082;952.856;;;;
2019/04/09 20:01:51;;;;;;;51.8;43.6;;;;;;;13.74;68.64551;952.9346;;;;
2019/04/09 20:04:17;;;;;;;49.9;42.4;;;;;;;13.62;68.41602;952.8836;;;;
2019/04/09 20:06:42;;;;;;;49.4;43.1;;;;;;;13.7;68.48535;952.9285;;;;
2019/04/09 20:09:07;;;;;;;49.6;43.5;;;;;;;13.65;68.55957;952.8497;;;;
2019/04/09 20:11:32;;;;;;;50.8;43.4;;;;;;;13.75;68.49512;952.8861;;;;
2019/04/09 20:13:59;;;;;;;48.1;42.3;;;;;;;13.68;68.08594;952.8969;;;;
2019/04/09 20:16:23;;;;;;;51.4;43.7;;;;;;;13.66;68.3877;952.8951;;;;
2019/04/09 20:18:49;;;;;;;53.2;44.2;;;;;;;13.64;69.07129;952.915;;;;
2019/04/09 20:21:14;;;;;;;52.6;44.3;;;;;;;13.53;68.62305;952.8915;;;;
2019/04/09 20:23:39;;;;;;;55.7;47.1;;;;;;;13.5;68.74609;952.8714;;;;
2019/04/09 20:26:04;;;;;;;56.3;47;;;;;;;13.48;69.24414;952.8438;;;;
2019/04/09 20:28:30;;;;;;;54.1;45.4;;;;;;;13.53;68.96094;952.8658;;;;
2019/04/09 20:30:54;;;;;;;54.1;46;;;;;;;13.56;69.12793;952.7855;;;;
2019/04/09 20:33:20;;;;;;;54.8;47;;;;;;;13.56;69.20996;952.9001;;;;
2019/04/09 20:35:45;;;;;;;54.6;46.4;;;;;;;13.6;69.14746;952.9334;;;;
2019/04/09 20:38:11;;;;;;;56.2;48;;;;;;;13.61;68.98438;952.9246;;;;
2019/04/09 20:40:35;;;;;;;61;51;;;;;;;13.57;69.26953;952.908;;;;
2019/04/09 20:43:00;;;;;;;57.6;49.5;;;;;;;13.57;69.46875;952.9545;;;;
2019/04/09 20:45:26;;;;;;;56.8;49.4;;;;;;;13.59;69.35352;952.9692;;;;
2019/04/09 20:47:51;;;;;;;57.8;49.5;;;;;;;13.68;69.42676;952.9958;;;;
2019/04/09 20:50:16;;;;;;;71.2;60.3;;;;;;;13.67;69.34473;952.9405;;;;
2019/04/09 20:52:41;;;;;;;58.4;50.7;;;;;;;13.73;69.37695;952.9367;;;;
2019/04/09 20:55:08;;;;;;;60.3;52.7;;;;;;;13.75;69.30957;953.0028;;;;
2019/04/09 20:57:31;;;;;;;59.7;50;;;;;;;13.78;69.11523;952.9769;;;;
2019/04/09 21:00:46;;;;;;;59.7;51.3;;;;;;;13.78;69.23242;952.9769;;;;
2019/04/09 21:04:46;;;;;;;67;55.7;;;;;;;13.67;70.41504;953.0009;;;;
2019/04/09 21:07:12;;;;;;;66;56;;;;;;;13.56;71.55176;953.0248;;;;
2019/04/09 21:09:37;;;;;;;79.1;62.9;;;;;;;13.41;73.21484;952.9433;;;;
2019/04/09 21:12:02;;;;;;;84.3;68.3;;;;;;;13.39;74.00391;952.9207;;;;
2019/04/09 21:14:27;;;;;;;83.9;67.9;;;;;;;13.31;74.47949;953.0047;;;;
2019/04/09 21:16:52;;;;;;;86.3;69;;;;;;;13.26;75.44922;952.9172;;;;
2019/04/09 21:19:17;;;;;;;81.3;67;;;;;;;13.17;74.97852;952.9338;;;;
2019/04/09 21:21:43;;;;;;;82.6;65.7;;;;;;;13.12;75.87891;952.9449;;;;
2019/04/09 21:24:08;;;;;;;85.2;69.4;;;;;;;12.93;76.29785;952.9108;;;;
2019/04/09 21:26:33;;;;;;;89.2;71;;;;;;;12.97;76.64551;952.9481;;;;
2019/04/09 21:28:58;;;;;;;82.9;67.4;;;;;;;12.96;76.68848;952.9156;;;;
2019/04/09 21:31:23;;;;;;;81.5;67.9;;;;;;;12.95;76.4873;952.8663;;;;
2019/04/09 21:33:48;;;;;;;85.2;66.8;;;;;;;12.95;76.29102;952.8574;;;;
2019/04/09 21:36:17;;;;;;;79.9;66.5;;;;;;;12.92;76.22656;952.8708;;;;
2019/04/09 21:38:42;;;;;;;82.1;67.2;;;;;;;12.9;76.64258;952.9281;;;;
2019/04/09 21:41:07;;;;;;;85.6;69.3;;;;;;;12.9;76.99121;952.9459;;;;
2019/04/09 21:43:32;;;;;;;78.2;64;;;;;;;12.96;76.18848;952.9453;;;;
2019/04/09 21:45:57;;;;;;;78.7;63.5;;;;;;;12.99;75.76367;952.9797;;;;
2019/04/09 21:48:23;;;;;;;73.1;60.9;;;;;;;12.97;74.74707;952.9955;;;;
2019/04/09 21:50:48;;;;;;;74.3;61.2;;;;;;;13.02;74.24414;953.0358;;;;
2019/04/09 21:53:13;;;;;;;75.4;62.5;;;;;;;13;74.79785;953.1248;;;;
2019/04/09 21:55:39;;;;;;;78.1;63.6;;;;;;;12.84;74.90039;953.2228;;;;
2019/04/09 21:58:04;;;;;;;91.3;72;;;;;;;12.61;76.46289;953.3025;;;;
2019/04/09 22:00:47;;;;;;;105.5;78.7;;;;;;;12.27;78.11035;953.3786;;;;
2019/04/09 22:02:58;;;;;;;107.9;81.3;;;;;;;11.92;79.93945;953.3821;;;;
2019/04/09 22:05:23;;;;;;;100.3;78.4;;;;;;;11.94;80.79004;953.3072;;;;
2019/04/09 22:07:48;;;;;;;108.2;82.2;;;;;;;11.88;81.83496;953.2512;;;;
2019/04/09 22:10:13;;;;;;;94.1;73.8;;;;;;;12.01;80.96582;953.1696;;;;
2019/04/09 22:12:38;;;;;;;83.3;67.6;;;;;;;12.09;79.69434;953.1753;;;;
2019/04/09 22:15:03;;;;;;;89;69.9;;;;;;;12.19;79.76855;953.1747;;;;
2019/04/09 22:17:28;;;;;;;80.9;64.5;;;;;;;12.36;77.97754;953.1559;;;;
2019/04/09 22:19:53;;;;;;;79.1;64;;;;;;;12.48;77.66113;953.2292;;;;
2019/04/09 22:22:18;;;;;;;78.5;64.2;;;;;;;12.61;77.00879;953.2383;;;;
2019/04/09 22:24:44;;;;;;;72.9;59.7;;;;;;;12.7;76.07129;953.2643;;;;
2019/04/09 22:27:09;;;;;;;72.9;60.5;;;;;;;12.78;76.16699;953.258;;;;
2019/04/09 22:29:34;;;;;;;75.4;62.1;;;;;;;12.82;75.72168;953.2951;;;;
2019/04/09 22:31:59;;;;;;;69.4;57.8;;;;;;;12.86;74.79883;953.3442;;;;
2019/04/09 22:34:24;;;;;;;69.7;58.4;;;;;;;12.86;74.01953;953.3917;;;;
2019/04/09 22:36:54;;;;;;;71.7;58.9;;;;;;;12.93;74.21582;953.4553;;;;
2019/04/09 22:39:19;;;;;;;69.3;58.1;;;;;;;12.98;74.41113;953.4135;;;;
2019/04/09 22:41:44;;;;;;;68.1;58.1;;;;;;;13.03;74.40918;953.437;;;;
2019/04/09 22:44:10;;;;;;;72.9;59.9;;;;;;;13.06;74.73926;953.4118;;;;
2019/04/09 22:46:35;;;;;;;69.5;58.3;;;;;;;13.11;74.38574;953.4095;;;;
2019/04/09 22:49:01;;;;;;;75.8;62.6;;;;;;;13.14;74.56641;953.5035;;;;
2019/04/09 22:51:25;;;;;;;68.4;58.1;;;;;;;13.15;74.70996;953.4073;;;;
2019/04/09 22:53:50;;;;;;;70.9;59.6;;;;;;;13.18;74.42188;953.4042;;;;
2019/04/09 22:56:17;;;;;;;72.6;60.9;;;;;;;13.18;74.58594;953.4763;;;;
2019/04/09 22:58:42;;;;;;;77.3;63.8;;;;;;;13.09;75;953.4026;;;;
2019/04/09 23:06:03;;;;;;;73.9;63.2;;;;;;;13;75.33301;953.3561;;;;
2019/04/09 23:08:24;;;;;;;77.7;64.2;;;;;;;12.95;75.04688;953.2941;;;;
2019/04/09 23:11:14;;;;;;;81.9;66.3;;;;;;;12.9;75.7002;953.3262;;;;